Time;durP1;ratioP1;P1;durP2;ratioP2;P2;SDS_P1;SDS_P2;PMS_P1;PMS_P2;Temp;Humidity;BMP_temperature;BMP_pressure;BME280_temperature;BME280_humidity;BME280_pressure;Samples;Min_cycle;Max_cycle;Signal;HPM_P1;HPM_P2
2023/04/21 00:00:57;;;;;;;12.30;10.10;;;;;;;8.37;100.00;101877.59;4981178;28;20792;-70
2023/04/21 00:03:23;;;;;;;11.40;9.23;;;;;;;8.59;100.00;101906.50;4981698;28;20784;-70
2023/04/21 00:05:49;;;;;;;15.03;10.10;;;;;;;8.45;100.00;101903.56;4980863;28;20449;-70
2023/04/21 00:08:15;;;;;;;11.73;9.30;;;;;;;8.46;100.00;101903.41;4981048;28;20179;-70
2023/04/21 00:10:41;;;;;;;13.73;10.20;;;;;;;8.63;100.00;101907.00;4981122;28;20449;-70
2023/04/21 00:13:06;;;;;;;13.50;9.47;;;;;;;8.43;100.00;101901.06;4980347;28;20417;-70
2023/04/21 00:15:32;;;;;;;12.47;9.80;;;;;;;8.50;100.00;101895.91;4980544;28;20232;-70
2023/04/21 00:17:57;;;;;;;15.00;10.33;;;;;;;8.50;100.00;101891.38;4979756;28;20601;-70
2023/04/21 00:20:25;;;;;;;14.90;9.60;;;;;;;8.52;100.00;101891.22;4963848;28;20562;-70
2023/04/21 00:22:55;;;;;;;9.77;8.77;;;;;;;8.52;100.00;101891.22;4980971;28;20720;-70
2023/04/21 00:25:20;;;;;;;12.97;9.37;;;;;;;8.14;100.00;101847.91;4980270;28;20430;-70
2023/04/21 00:27:46;;;;;;;11.90;8.80;;;;;;;8.37;100.00;101856.22;4980583;28;20453;-70
2023/04/21 00:30:11;;;;;;;12.57;8.50;;;;;;;8.55;100.00;101877.53;4980905;28;20603;-71
2023/04/21 00:32:37;;;;;;;15.53;9.40;;;;;;;8.28;100.00;101836.63;4980746;28;20196;-70
2023/04/21 00:35:03;;;;;;;13.90;9.00;;;;;;;8.32;100.00;101869.22;4982184;28;20190;-70
2023/04/21 00:37:28;;;;;;;14.80;9.10;;;;;;;8.45;100.00;101872.31;4981909;28;20214;-70
2023/04/21 00:39:53;;;;;;;16.77;10.10;;;;;;;8.30;100.00;101868.53;4982103;28;20246;-70
2023/04/21 00:42:19;;;;;;;12.00;9.20;;;;;;;7.77;100.00;101754.66;4981751;28;20194;-70
2023/04/21 00:44:45;;;;;;;13.73;9.77;;;;;;;8.29;100.00;101856.16;4980377;28;20190;-70
2023/04/21 00:47:10;;;;;;;14.23;9.83;;;;;;;8.25;100.00;101866.34;4981047;28;20578;-70
2023/04/21 00:49:36;;;;;;;11.80;9.03;;;;;;;8.05;100.00;101859.53;4981515;28;20188;-70
2023/04/21 00:52:04;;;;;;;16.00;10.70;;;;;;;7.22;100.00;101764.63;4981859;28;20186;-70
2023/04/21 00:54:30;;;;;;;10.50;8.40;;;;;;;7.96;100.00;101869.31;4980988;28;20217;-70
2023/04/21 00:56:59;;;;;;;12.90;9.10;;;;;;;7.77;100.00;101819.59;4982150;28;20948;-70
2023/04/21 00:59:24;;;;;;;12.13;9.80;;;;;;;7.77;100.00;101810.75;4984204;28;20656;-70
2023/04/21 01:01:51;;;;;;;11.97;8.80;;;;;;;7.45;100.00;101798.84;4984576;28;20440;-70
2023/04/21 01:04:17;;;;;;;12.83;8.90;;;;;;;7.79;100.00;101835.47;4984283;28;20696;-70
2023/04/21 01:06:42;;;;;;;12.80;9.83;;;;;;;7.41;100.00;101784.13;4984415;28;20555;-70
2023/04/21 01:09:08;;;;;;;11.57;8.60;;;;;;;7.94;100.00;101836.59;4984398;28;20194;-70
2023/04/21 01:11:33;;;;;;;14.10;9.87;;;;;;;8.07;100.00;101845.03;4984723;28;20193;-70
2023/04/21 01:13:59;;;;;;;11.70;9.80;;;;;;;7.20;100.00;101699.91;4984197;28;20258;-70
2023/04/21 01:16:25;;;;;;;10.90;8.77;;;;;;;8.10;100.00;101850.06;4985701;28;20369;-69
2023/04/21 01:18:52;;;;;;;12.63;8.90;;;;;;;8.02;100.00;101841.97;4984803;28;20197;-69
2023/04/21 01:21:18;;;;;;;16.63;9.07;;;;;;;7.95;100.00;101843.59;4984162;28;20476;-70
2023/04/21 01:23:44;;;;;;;13.87;10.40;;;;;;;7.89;100.00;101806.81;4984147;28;20437;-70
2023/04/21 01:26:10;;;;;;;11.10;9.27;;;;;;;8.04;100.00;101837.31;4984101;28;20486;-70
2023/04/21 01:28:36;;;;;;;17.23;10.37;;;;;;;7.72;100.00;101783.66;4984574;28;20420;-70
2023/04/21 01:31:02;;;;;;;13.43;10.47;;;;;;;8.05;100.00;101844.34;4964154;28;20434;-70
2023/04/21 01:33:27;;;;;;;15.20;11.37;;;;;;;7.68;100.00;101772.47;4984142;28;20212;-70
2023/04/21 01:35:54;;;;;;;13.53;10.90;;;;;;;7.28;100.00;101712.47;4984096;28;20205;-70
2023/04/21 01:38:21;;;;;;;17.37;11.17;;;;;;;8.10;100.00;101843.84;4983829;28;20262;-70
2023/04/21 01:40:50;;;;;;;14.77;10.30;;;;;;;8.09;100.00;101839.50;4983117;28;20509;-70
2023/04/21 01:43:19;;;;;;;13.40;10.10;;;;;;;8.07;100.00;101845.03;4983044;28;20436;-70
2023/04/21 01:45:46;;;;;;;12.60;10.30;;;;;;;7.91;100.00;101836.91;4983360;28;20549;-70
2023/04/21 01:48:11;;;;;;;12.50;10.77;;;;;;;7.30;100.00;101715.00;4983685;28;20441;-70
2023/04/21 01:50:37;;;;;;;12.47;9.80;;;;;;;7.88;100.00;101819.34;4983669;28;20493;-70
2023/04/21 01:53:02;;;;;;;10.90;9.53;;;;;;;7.97;100.00;101833.59;4983511;28;20557;-70
2023/04/21 01:55:28;;;;;;;13.50;10.07;;;;;;;7.83;100.00;101792.25;4984464;28;20228;-70
2023/04/21 01:57:56;;;;;;;13.10;9.97;;;;;;;7.96;100.00;101823.06;4983482;28;20248;-70
2023/04/21 02:00:22;;;;;;;12.60;9.50;;;;;;;8.05;100.00;101817.63;4983242;28;20233;-70
2023/04/21 02:02:47;;;;;;;12.13;10.67;;;;;;;8.01;100.00;101802.03;4983233;28;20517;-70
2023/04/21 02:05:13;;;;;;;14.13;10.17;;;;;;;7.94;100.00;101799.19;4983298;28;20232;-70
2023/04/21 02:07:38;;;;;;;15.70;10.33;;;;;;;7.92;100.00;101785.97;4983582;28;20210;-70
2023/04/21 02:10:04;;;;;;;15.60;9.53;;;;;;;8.05;100.00;101811.44;4965995;28;20557;-70
2023/04/21 02:12:29;;;;;;;16.93;10.10;;;;;;;7.82;100.00;101784.41;4983326;28;20192;-70
2023/04/21 02:14:55;;;;;;;13.87;9.80;;;;;;;7.77;100.00;101819.59;4983100;28;20193;-70
2023/04/21 02:17:20;;;;;;;14.20;9.70;;;;;;;7.86;100.00;101809.81;4982609;28;20209;-70
2023/04/21 02:19:46;;;;;;;12.97;9.33;;;;;;;7.89;100.00;101788.13;4983391;28;20206;-70
2023/04/21 02:22:12;;;;;;;12.80;9.40;;;;;;;7.88;100.00;101770.44;4965625;28;20190;-70
2023/04/21 02:24:38;;;;;;;13.10;9.27;;;;;;;8.01;100.00;101802.88;4982592;28;20425;-70
2023/04/21 02:27:03;;;;;;;15.80;9.47;;;;;;;8.05;100.00;101808.75;4984081;28;20253;-70
2023/04/21 02:29:29;;;;;;;17.67;10.70;;;;;;;8.10;100.00;101803.75;4979036;28;20182;-70
2023/04/21 02:31:54;;;;;;;10.90;9.30;;;;;;;7.97;100.00;101796.19;4964906;28;20185;-70
2023/04/21 02:34:20;;;;;;;17.40;10.73;;;;;;;7.87;100.00;101795.47;4980105;28;20186;-70
2023/04/21 02:36:46;;;;;;;11.40;8.63;;;;;;;7.88;100.00;101797.13;4982843;28;20301;-71
2023/04/21 02:39:11;;;;;;;14.93;9.00;;;;;;;8.01;100.00;101786.00;4981683;28;20564;-70
2023/04/21 02:41:37;;;;;;;11.13;8.23;;;;;;;7.91;100.00;101783.47;4983073;28;20190;-70
2023/04/21 02:44:02;;;;;;;25.53;9.70;;;;;;;8.00;100.00;101795.88;4970404;28;20269;-70
2023/04/21 02:46:28;;;;;;;12.83;9.40;;;;;;;8.15;100.00;101806.81;4983004;28;20220;-70
2023/04/21 02:48:53;;;;;;;11.70;9.40;;;;;;;8.08;100.00;101798.59;4982408;28;20237;-70
2023/04/21 02:51:18;;;;;;;13.30;8.97;;;;;;;7.62;100.00;101743.72;4982072;28;20178;-70
2023/04/21 02:53:44;;;;;;;12.77;8.80;;;;;;;8.02;100.00;101788.53;4983284;28;20807;-70
2023/04/21 02:56:09;;;;;;;12.20;9.07;;;;;;;7.94;100.00;101791.16;4982373;28;20722;-70
2023/04/21 02:58:35;;;;;;;12.33;9.20;;;;;;;7.96;100.00;101791.84;4982288;28;20205;-70
2023/04/21 03:01:03;;;;;;;12.60;8.60;;;;;;;8.01;100.00;101794.88;4982394;28;20668;-70
2023/04/21 03:03:29;;;;;;;12.20;7.70;;;;;;;8.09;100.00;101794.91;4982856;28;20889;-70
2023/04/21 03:06:03;;;;;;;12.50;8.90;;;;;;;7.99;100.00;101770.16;4982592;28;20453;-70
2023/04/21 03:08:29;;;;;;;11.60;9.00;;;;;;;7.91;100.00;101791.47;4982899;28;20422;-70
2023/04/21 03:10:54;;;;;;;14.57;9.23;;;;;;;7.59;100.00;101739.53;4982248;28;20520;-70
2023/04/21 03:13:20;;;;;;;12.10;8.23;;;;;;;7.97;100.00;101790.84;4982119;28;20297;-70
2023/04/21 03:15:45;;;;;;;14.40;8.53;;;;;;;7.50;100.00;101694.28;4982160;28;20265;-70
2023/04/21 03:18:11;;;;;;;14.27;9.00;;;;;;;8.10;100.00;101793.06;4981918;28;20177;-70
2023/04/21 03:20:36;;;;;;;9.93;7.87;;;;;;;8.05;100.00;101796.25;4982482;28;20187;-70
2023/04/21 03:23:02;;;;;;;11.93;8.40;;;;;;;7.88;100.00;101765.91;4981957;28;20182;-70
2023/04/21 03:25:28;;;;;;;9.33;7.60;;;;;;;7.44;100.00;101701.91;4982233;28;20284;-70
2023/04/21 03:27:54;;;;;;;11.33;8.93;;;;;;;7.71;100.00;101710.75;4981688;28;20202;-70
2023/04/21 03:30:19;;;;;;;13.57;8.80;;;;;;;7.70;100.00;101712.56;4982496;28;20432;-70
2023/04/21 03:32:45;;;;;;;11.57;8.37;;;;;;;8.20;100.00;101784.97;4981951;28;20232;-70
2023/04/21 03:35:10;;;;;;;12.33;9.03;;;;;;;8.08;100.00;101790.56;4981401;28;20674;-70
2023/04/21 03:37:36;;;;;;;9.57;7.90;;;;;;;8.00;100.00;101776.34;4982121;28;20261;-70
2023/04/21 03:40:02;;;;;;;15.07;9.03;;;;;;;8.10;100.00;101793.06;4981882;28;20206;-70
2023/04/21 03:42:29;;;;;;;11.40;9.67;;;;;;;8.05;100.00;101785.56;4982154;28;20181;-70
2023/04/21 03:44:54;;;;;;;10.57;8.07;;;;;;;7.91;100.00;101759.44;4982000;28;20471;-70
2023/04/21 03:47:20;;;;;;;12.90;8.90;;;;;;;8.09;100.00;101791.41;4981700;28;20449;-70
2023/04/21 03:49:45;;;;;;;14.20;8.60;;;;;;;7.98;100.00;101797.84;4981937;28;20175;-70
2023/04/21 03:52:11;;;;;;;12.70;7.87;;;;;;;8.01;100.00;101799.38;4981887;28;20269;-70
2023/04/21 03:54:36;;;;;;;13.40;8.27;;;;;;;7.90;100.00;101801.34;4981882;28;20214;-70
2023/04/21 03:57:01;;;;;;;11.80;8.70;;;;;;;7.96;100.00;101764.31;4981750;28;20198;-70
2023/04/21 03:59:27;;;;;;;11.73;8.97;;;;;;;7.96;100.00;101783.00;4981914;28;20280;-70
2023/04/21 04:01:53;;;;;;;12.10;9.03;;;;;;;7.70;100.00;101749.13;4982170;28;20186;-70
2023/04/21 04:04:18;;;;;;;14.33;8.97;;;;;;;7.88;100.00;101763.25;4982099;28;20213;-70
2023/04/21 04:06:44;;;;;;;11.63;8.50;;;;;;;7.73;100.00;101735.47;4989267;23;20261;-74
2023/04/21 04:09:09;;;;;;;12.10;8.87;;;;;;;8.11;100.00;101792.94;4961519;28;20227;-73
2023/04/21 04:11:35;;;;;;;16.13;9.57;;;;;;;7.83;100.00;101746.84;4979383;28;20700;-74
2023/04/21 04:14:01;;;;;;;12.37;8.30;;;;;;;7.06;100.00;101649.78;4979091;28;20643;-75
2023/04/21 04:16:27;;;;;;;10.90;9.00;;;;;;;6.92;100.00;101599.66;4981382;28;20444;-74
2023/04/21 04:18:53;;;;;;;13.27;8.97;;;;;;;7.53;100.00;101758.03;4979537;28;20464;-77
2023/04/21 04:21:18;;;;;;;14.97;9.00;;;;;;;7.64;100.00;101781.81;4979864;28;20649;-73
2023/04/21 04:23:44;;;;;;;13.47;9.50;;;;;;;8.00;100.00;101803.06;4962771;28;20201;-76
2023/04/21 04:26:10;;;;;;;12.67;9.10;;;;;;;7.94;100.00;101815.22;4962946;28;20186;-74
2023/04/21 04:28:36;;;;;;;14.37;9.20;;;;;;;8.04;100.00;101799.91;4980695;28;20636;-76
2023/04/21 04:31:03;;;;;;;12.60;9.60;;;;;;;7.29;100.00;101691.94;4980494;28;20476;-77
2023/04/21 04:33:29;;;;;;;11.77;8.40;;;;;;;7.73;100.00;101740.81;4963988;28;20443;-75
2023/04/21 04:35:54;;;;;;;13.00;9.00;;;;;;;7.30;100.00;101672.28;4966646;28;20531;-74
2023/04/21 04:38:21;;;;;;;13.50;10.23;;;;;;;7.73;100.00;101751.47;4983493;28;20276;-74
2023/04/21 04:40:56;;;;;;;12.27;8.83;;;;;;;7.43;100.00;101726.06;4966831;28;20657;-74
2023/04/21 04:43:22;;;;;;;12.07;8.90;;;;;;;7.32;100.00;101687.16;4972643;28;20421;-74
2023/04/21 04:45:47;;;;;;;14.50;9.27;;;;;;;7.90;100.00;101781.81;4983544;28;20432;-73
2023/04/21 04:48:13;;;;;;;12.40;8.50;;;;;;;7.35;100.00;101680.66;4965999;28;20463;-76
2023/04/21 04:50:39;;;;;;;12.33;9.00;;;;;;;7.15;100.00;101659.50;4966626;28;20244;-77
2023/04/21 04:53:04;;;;;;;13.97;9.77;;;;;;;7.38;100.00;101686.53;4965959;28;20201;-75
2023/04/21 04:55:30;;;;;;;13.30;8.93;;;;;;;7.41;100.00;101717.41;4983224;28;20189;-74
2023/04/21 04:57:55;;;;;;;13.97;8.23;;;;;;;7.47;100.00;101719.44;4966649;28;20201;-75
2023/04/21 05:00:21;;;;;;;13.97;8.67;;;;;;;7.24;100.00;101676.41;4983605;28;20296;-77
2023/04/21 05:02:46;;;;;;;13.63;8.53;;;;;;;7.14;100.00;101683.66;4983262;28;20235;-75
2023/04/21 05:05:12;;;;;;;10.77;8.40;;;;;;;7.61;100.00;101742.06;4983502;28;20189;-75
2023/04/21 05:07:38;;;;;;;10.77;8.10;;;;;;;6.93;100.00;101644.84;4982786;28;20293;-75
2023/04/21 05:10:04;;;;;;;14.20;8.43;;;;;;;6.67;100.00;101579.97;4966075;28;20243;-76
2023/04/21 05:12:33;;;;;;;12.37;8.83;;;;;;;6.03;100.00;101470.88;4981722;28;20185;-76
2023/04/21 05:14:59;;;;;;;14.40;9.70;;;;;;;6.59;100.00;101586.06;4965147;28;20472;-74
2023/04/21 05:17:25;;;;;;;12.83;8.90;;;;;;;8.11;100.00;101797.44;4983358;28;20916;-74
2023/04/21 05:19:50;;;;;;;9.13;7.63;;;;;;;7.85;100.00;101742.19;4965489;28;20205;-75
2023/04/21 05:22:16;;;;;;;10.57;7.47;;;;;;;6.74;100.00;101570.34;4983179;28;20434;-74
2023/04/21 05:24:42;;;;;;;12.67;7.43;;;;;;;7.50;100.00;101688.94;4982639;28;20197;-73
2023/04/21 05:27:08;;;;;;;13.97;8.23;;;;;;;7.94;100.00;101737.72;4965752;28;20202;-77
2023/04/21 05:29:34;;;;;;;14.10;7.97;;;;;;;6.38;100.00;101505.63;4982928;28;20425;-76
2023/04/21 05:32:00;;;;;;;11.50;7.87;;;;;;;8.22;100.00;101823.91;4983498;28;20422;-74
2023/04/21 05:34:26;;;;;;;14.30;8.60;;;;;;;7.53;100.00;101673.44;4964738;28;20186;-74
2023/04/21 05:36:52;;;;;;;11.40;7.77;;;;;;;7.15;100.00;101595.47;4965517;28;20520;-75
2023/04/21 05:39:17;;;;;;;11.53;7.97;;;;;;;6.87;100.00;101564.63;4982603;28;20245;-73
2023/04/21 05:41:43;;;;;;;10.43;7.87;;;;;;;7.28;100.00;101618.22;4981978;28;20515;-75
2023/04/21 05:44:09;;;;;;;13.97;8.20;;;;;;;8.51;100.00;101801.31;4982594;28;20694;-75
2023/04/21 05:46:37;;;;;;;11.30;7.60;;;;;;;7.47;100.00;101626.84;4982628;28;20469;-73
2023/04/21 05:49:03;;;;;;;9.13;7.40;;;;;;;7.48;100.00;101617.84;4983211;28;20178;-74
2023/04/21 05:51:28;;;;;;;11.07;6.90;;;;;;;8.39;100.00;101747.31;4982616;28;20435;-76
2023/04/21 05:53:54;;;;;;;13.07;7.23;;;;;;;8.41;100.00;101763.19;4982478;28;20185;-76
2023/04/21 05:56:20;;;;;;;11.00;7.20;;;;;;;7.96;100.00;101681.50;4964358;28;20677;-76
2023/04/21 05:58:46;;;;;;;9.40;7.00;;;;;;;8.61;100.00;101764.56;4964318;28;20211;-76
2023/04/21 06:01:11;;;;;;;13.93;7.80;;;;;;;7.85;100.00;101683.44;4963488;28;20190;-76
2023/04/21 06:03:37;;;;;;;11.30;7.20;;;;;;;7.00;100.00;101520.53;4964787;28;20195;-76
2023/04/21 06:06:04;;;;;;;9.40;7.07;;;;;;;7.45;100.00;101569.28;4981505;28;20422;-77
2023/04/21 06:08:30;;;;;;;12.93;7.30;;;;;;;7.57;100.00;101561.81;4965105;28;20189;-76
2023/04/21 06:10:56;;;;;;;9.60;6.83;;;;;;;7.99;100.00;101611.69;4982136;28;20430;-79
2023/04/21 06:13:22;;;;;;;12.70;7.53;;;;;;;7.37;100.00;101506.00;4982388;28;20422;-78
2023/04/21 06:15:47;;;;;;;10.83;7.23;;;;;;;7.40;100.00;101535.03;4981137;28;20193;-75
2023/04/21 06:18:13;;;;;;;10.70;6.97;;;;;;;8.71;100.00;101718.97;4982457;28;20202;-79
2023/04/21 06:20:39;;;;;;;11.50;7.40;;;;;;;8.79;100.00;101717.16;4981652;28;20218;-74
2023/04/21 06:23:08;;;;;;;9.67;6.70;;;;;;;9.19;100.00;101786.91;4964710;28;20388;-77
2023/04/21 06:25:35;;;;;;;10.37;7.33;;;;;;;9.17;100.00;101763.00;4963874;28;20862;-76
2023/04/21 06:28:08;;;;;;;11.90;7.80;;;;;;;8.57;100.00;101648.25;4982308;28;20449;-78
2023/04/21 06:30:37;;;;;;;10.97;6.83;;;;;;;9.37;100.00;101798.28;4982057;28;20931;-74
2023/04/21 06:33:05;;;;;;;9.40;6.93;;;;;;;9.08;100.00;101698.91;4981616;28;20923;-76
2023/04/21 06:35:31;;;;;;;12.33;6.60;;;;;;;9.49;100.00;101778.22;4981303;28;20425;-76
2023/04/21 06:38:06;;;;;;;9.23;7.10;;;;;;;9.00;100.00;101687.22;4964610;28;20453;-79
2023/04/21 06:40:34;;;;;;;8.63;6.67;;;;;;;9.29;100.00;101715.31;4980720;28;20974;-77
2023/04/21 06:43:00;;;;;;;7.30;5.93;;;;;;;9.65;100.00;101757.78;4980515;28;20431;-78
2023/04/21 06:45:26;;;;;;;12.23;6.40;;;;;;;8.97;100.00;101626.00;4981213;28;20422;-77
2023/04/21 06:47:54;;;;;;;9.83;6.90;;;;;;;9.69;100.00;101743.88;4980596;28;20580;-78
2023/04/21 06:50:19;;;;;;;12.43;6.90;;;;;;;9.77;100.00;101736.81;4962904;28;20176;-78
2023/04/21 06:52:45;;;;;;;10.40;6.90;;;;;;;9.83;100.00;101736.94;4980534;28;20541;-78
2023/04/21 06:55:13;;;;;;;13.57;7.60;;;;;;;9.37;100.00;101661.72;4981368;28;20249;-75
2023/04/21 06:57:39;;;;;;;14.40;7.37;;;;;;;9.79;100.00;101708.00;4980658;28;20210;-75
2023/04/21 07:00:05;;;;;;;11.20;7.60;;;;;;;9.81;100.00;101697.97;4963971;28;20469;-79
2023/04/21 07:02:31;;;;;;;14.63;7.60;;;;;;;9.92;100.00;101714.50;4979940;28;20440;-76
2023/04/21 07:04:57;;;;;;;14.73;6.90;;;;;;;10.01;100.00;101723.34;4980242;28;20804;-78
2023/04/21 07:07:25;;;;;;;11.07;7.47;;;;;;;10.01;100.00;101703.72;4963955;28;20647;-78
2023/04/21 07:09:51;;;;;;;11.17;7.37;;;;;;;9.60;100.00;101624.34;4980488;28;20240;-76
2023/04/21 07:12:17;;;;;;;8.23;6.83;;;;;;;9.55;100.00;101597.25;4981555;28;20513;-78
2023/04/21 07:14:46;;;;;;;10.87;6.50;;;;;;;9.70;100.00;101633.03;4978787;28;20190;-76
2023/04/21 07:17:11;;;;;;;15.20;7.63;;;;;;;10.23;100.00;101711.00;4980598;28;20456;-79
2023/04/21 07:19:39;;;;;;;11.07;7.33;;;;;;;10.33;100.00;101710.84;4979880;28;20461;-77
2023/04/21 07:22:05;;;;;;;8.70;6.67;;;;;;;10.31;100.00;101702.13;4981440;28;20182;-77
2023/04/21 07:24:40;;;;;;;8.00;6.50;;;;;;;9.87;100.00;101619.56;4979403;28;20523;-75
2023/04/21 07:27:05;;;;;;;12.53;7.20;;;;;;;10.15;100.00;101642.19;4981359;28;20209;-77
2023/04/21 07:29:33;;;;;;;13.07;6.63;;;;;;;9.00;100.00;101448.25;4980970;28;20428;-78
2023/04/21 07:31:59;;;;;;;12.73;6.90;;;;;;;9.98;100.00;101581.66;4981030;28;20699;-77
2023/04/21 07:34:24;;;;;;;9.47;6.50;;;;;;;10.31;100.00;101635.91;4980839;28;20430;-77
2023/04/21 07:36:51;;;;;;;8.57;6.60;;;;;;;10.67;100.00;101688.97;4980028;28;20698;-77
2023/04/21 07:39:17;;;;;;;11.33;7.20;;;;;;;10.42;100.00;101634.69;4981036;28;20585;-74
2023/04/21 07:41:42;;;;;;;8.47;6.60;;;;;;;10.77;100.00;101684.22;4979630;28;20517;-77
2023/04/21 07:44:08;;;;;;;11.90;5.77;;;;;;;10.89;100.00;101690.00;4979081;28;20193;-78
2023/04/21 07:46:33;;;;;;;15.00;7.40;;;;;;;10.85;100.00;101673.44;4980560;28;20202;-77
2023/04/21 07:48:59;;;;;;;11.73;7.60;;;;;;;10.88;100.00;101645.41;4980639;28;20204;-77
2023/04/21 07:51:26;;;;;;;7.70;6.77;;;;;;;10.48;100.00;101574.97;4964260;28;20178;-76
2023/04/21 07:53:52;;;;;;;13.13;7.60;;;;;;;11.01;100.00;101642.09;4981076;28;20185;-74
2023/04/21 07:56:20;;;;;;;10.20;6.77;;;;;;;10.91;100.00;101658.44;4979849;28;20455;-76
2023/04/21 07:58:46;;;;;;;9.63;6.70;;;;;;;11.37;100.00;101658.34;4980332;28;20912;-79
2023/04/21 08:01:15;;;;;;;10.40;7.63;;;;;;;11.34;100.00;101660.53;4979989;28;20449;-75
2023/04/21 08:03:41;;;;;;;7.87;6.03;;;;;;;10.45;100.00;101491.34;4980110;28;21148;-77
2023/04/21 08:06:07;;;;;;;9.10;6.27;;;;;;;10.96;100.00;101570.13;4979671;28;20511;-78
2023/04/21 08:08:35;;;;;;;11.83;6.13;;;;;;;10.83;100.00;101525.16;4984134;28;20194;-75
2023/04/21 08:11:04;;;;;;;10.70;5.90;;;;;;;11.63;100.00;101636.41;4966460;28;20186;-76
2023/04/21 08:13:34;;;;;;;9.93;5.87;;;;;;;11.71;100.00;101638.13;4966417;28;20472;-78
2023/04/21 08:16:00;;;;;;;13.83;6.40;;;;;;;11.28;100.00;101562.75;4963697;28;20420;-78
2023/04/21 08:18:26;;;;;;;13.40;6.47;;;;;;;11.86;100.00;101657.81;4965250;28;20440;-74
2023/04/21 08:20:51;;;;;;;13.17;6.23;;;;;;;11.50;100.00;101564.50;4984233;28;20192;-75
2023/04/21 08:23:18;;;;;;;10.60;6.90;;;;;;;11.36;100.00;101541.16;4967022;28;20285;-75
2023/04/21 08:25:46;;;;;;;10.20;6.40;;;;;;;11.62;100.00;101542.53;4983755;28;20181;-77
2023/04/21 08:28:15;;;;;;;13.43;6.03;;;;;;;11.43;100.00;101511.72;4984489;28;20454;-80
2023/04/21 08:30:44;;;;;;;11.10;6.13;;;;;;;12.25;100.00;101624.34;4984434;28;20527;-78
2023/04/21 08:33:12;;;;;;;12.83;6.03;;;;;;;11.63;100.00;101498.50;4967169;28;20444;-79
2023/04/21 08:35:41;;;;;;;11.17;6.40;;;;;;;12.02;100.00;101559.97;4983145;28;20841;-77
2023/04/21 08:38:07;;;;;;;16.40;7.13;;;;;;;11.68;100.00;101515.72;4983432;28;20457;-77
2023/04/21 08:40:36;;;;;;;10.60;5.90;;;;;;;12.10;100.00;101559.03;4983303;28;20589;-77
2023/04/21 08:43:06;;;;;;;14.13;6.87;;;;;;;12.14;100.00;101557.59;4983385;28;20429;-76
2023/04/21 08:45:33;;;;;;;15.47;6.53;;;;;;;12.68;100.00;101623.53;4984784;28;20461;-79
2023/04/21 08:48:00;;;;;;;10.70;6.23;;;;;;;12.83;100.00;101613.50;4982203;28;20456;-79
2023/04/21 08:50:30;;;;;;;10.57;6.10;;;;;;;12.55;100.00;101575.78;4966599;28;20410;-79
2023/04/21 08:52:56;;;;;;;14.13;6.70;;;;;;;12.84;100.00;101616.00;4983971;28;20429;-79
2023/04/21 08:55:28;;;;;;;10.00;5.80;;;;;;;12.99;100.00;101620.44;4983693;28;20431;-78
2023/04/21 08:57:54;;;;;;;10.67;5.67;;;;;;;12.38;100.00;101516.88;4983259;28;20463;-76
2023/04/21 09:00:20;;;;;;;10.00;6.07;;;;;;;11.08;100.00;101324.38;4983939;28;20838;-79
2023/04/21 09:02:56;;;;;;;16.43;7.20;;;;;;;11.73;100.00;101419.25;4983607;28;20193;-78
2023/04/21 09:05:32;;;;;;;12.93;6.20;;;;;;;12.07;100.00;101476.06;4982433;28;20425;-78
2023/04/21 09:08:17;;;;;;;8.63;5.83;;;;;;;13.04;100.00;101607.22;4982985;28;20544;-76
2023/04/21 09:10:48;;;;;;;15.50;6.63;;;;;;;13.29;100.00;101592.31;4983402;28;20425;-79
2023/04/21 09:13:16;;;;;;;9.43;5.60;;;;;;;13.28;100.00;101593.34;4966088;28;20540;-76
2023/04/21 09:15:48;;;;;;;11.33;5.93;;;;;;;12.96;100.00;101524.75;4982865;28;20810;-76
2023/04/21 09:18:18;;;;;;;10.50;6.27;;;;;;;12.74;100.00;101462.06;4983454;28;20935;-79
2023/04/21 09:20:46;;;;;;;10.87;5.97;;;;;;;13.39;100.00;101583.03;4982317;28;20465;-77
2023/04/21 09:23:12;;;;;;;10.23;5.83;;;;;;;13.24;100.00;101562.41;4982428;28;20920;-76
2023/04/21 09:25:39;;;;;;;11.63;6.40;;;;;;;13.55;100.00;101583.53;4981920;28;20492;-78
2023/04/21 09:28:09;;;;;;;12.20;7.03;;;;;;;13.22;100.00;101513.28;4983479;28;20480;-76
2023/04/21 09:30:36;;;;;;;12.13;6.50;;;;;;;13.21;100.00;101494.63;4982548;28;20429;-78
2023/04/21 09:33:03;;;;;;;6.87;5.90;;;;;;;13.39;100.00;101513.78;4983223;28;20528;-79
2023/04/21 09:35:32;;;;;;;15.57;7.03;;;;;;;13.54;100.00;101511.81;4982306;28;20526;-77
2023/04/21 09:38:00;;;;;;;7.07;5.30;;;;;;;14.15;100.00;101564.03;4982929;28;20524;-78
2023/04/21 09:40:28;;;;;;;12.60;6.37;;;;;;;13.48;100.00;101519.84;4982763;28;20563;-80
2023/04/21 09:42:53;;;;;;;8.10;5.60;;;;;;;14.39;100.00;101592.28;4965488;28;20457;-79
2023/04/21 09:45:22;;;;;;;10.97;5.80;;;;;;;14.27;100.00;101580.44;4982675;28;20421;-78
2023/04/21 09:47:52;;;;;;;8.30;5.70;;;;;;;13.66;100.00;101512.03;4981936;28;20280;-79
2023/04/21 09:50:19;;;;;;;9.47;6.73;;;;;;;12.60;100.00;101310.44;4981950;28;20432;-78
2023/04/21 09:52:49;;;;;;;13.10;6.00;;;;;;;13.66;100.00;101441.97;4965572;28;20487;-77
2023/04/21 09:55:17;;;;;;;14.73;6.40;;;;;;;14.36;100.00;101569.25;4965345;28;20499;-76
2023/04/21 09:57:45;;;;;;;11.07;6.80;;;;;;;14.47;100.00;101587.53;4964484;28;20604;-77
2023/04/21 10:00:12;;;;;;;8.13;5.60;;;;;;;14.64;100.00;101633.06;4983073;28;20500;-76
2023/04/21 10:02:59;;;;;;;8.20;5.47;;;;;;;14.55;100.00;101616.22;4982297;28;20802;-75
2023/04/21 10:05:25;;;;;;;17.53;7.07;;;;;;;14.64;100.00;101633.06;4983020;28;20421;-77
2023/04/21 10:07:51;;;;;;;8.53;5.40;;;;;;;14.72;100.00;101634.72;5012999;23;20493;-70
2023/04/21 10:10:26;;;;;;;11.67;6.10;;;;;;;14.71;100.00;101628.50;4981525;28;20180;-69
2023/04/21 10:12:52;;;;;;;8.77;5.97;;;;;;;14.81;100.00;101625.38;4984319;28;20496;-70
2023/04/21 10:15:31;;;;;;;9.90;5.43;;;;;;;14.85;100.00;101638.25;4981286;28;20429;-70
2023/04/21 10:18:15;;;;;;;9.20;5.97;;;;;;;14.82;100.00;101641.38;4981990;28;21049;-70
2023/04/21 10:20:55;;;;;;;12.27;5.70;;;;;;;14.97;100.00;101646.56;4981557;28;20456;-70
2023/04/21 10:23:37;;;;;;;11.30;6.07;;;;;;;15.01;100.00;101628.06;4963945;28;20514;-69
2023/04/21 10:26:03;;;;;;;10.97;5.30;;;;;;;15.25;100.00;101634.72;4981960;28;20436;-71
2023/04/21 10:28:59;;;;;;;7.53;5.87;;;;;;;15.18;100.00;101637.41;4980188;28;20441;-70
2023/04/21 10:31:36;;;;;;;10.67;5.47;;;;;;;15.21;100.00;101636.16;4958769;28;20564;-69
2023/04/21 10:34:07;;;;;;;10.17;5.40;;;;;;;15.27;100.00;101648.81;4981130;28;20923;-70
2023/04/21 10:37:05;;;;;;;9.40;5.77;;;;;;;15.32;100.00;101635.50;4980994;28;20461;-70
2023/04/21 10:39:54;;;;;;;9.57;5.00;;;;;;;15.41;100.00;101636.94;4963661;28;20479;-70
2023/04/21 10:42:24;;;;;;;11.33;5.37;;;;;;;15.44;100.00;101614.06;4964135;28;20460;-71
2023/04/21 10:44:53;;;;;;;9.13;5.23;;;;;;;15.60;100.00;101614.44;4978505;28;20460;-70
2023/04/21 10:47:35;;;;;;;9.40;5.40;;;;;;;15.42;100.00;101632.34;4978488;28;20530;-71
2023/04/21 10:50:11;;;;;;;8.50;5.97;;;;;;;15.36;100.00;101615.13;4981107;28;20419;-71
2023/04/21 10:52:36;;;;;;;6.57;4.90;;;;;;;15.46;100.00;101623.63;4976194;28;20793;-70
2023/04/21 10:55:09;;;;;;;9.43;4.90;;;;;;;15.80;100.00;101643.31;4981151;28;20437;-70
2023/04/21 10:57:35;;;;;;;9.83;5.40;;;;;;;15.76;100.00;101617.72;4980130;28;20205;-70
2023/04/21 11:00:04;;;;;;;7.40;5.90;;;;;;;15.96;100.00;101621.19;4981471;28;20512;-71
2023/04/21 11:02:30;;;;;;;9.47;5.30;;;;;;;15.78;100.00;101599.41;4964505;28;20424;-71
2023/04/21 11:04:55;;;;;;;9.00;5.00;;;;;;;15.96;100.00;101614.94;4980573;28;20836;-70
2023/04/21 11:07:22;;;;;;;7.50;4.80;;;;;;;15.85;100.00;101589.38;4980940;28;20692;-70
2023/04/21 11:09:59;;;;;;;6.53;4.90;;;;;;;15.95;100.00;101616.81;4981695;28;20200;-70
2023/04/21 11:12:29;;;;;;;11.00;4.60;;;;;;;16.12;100.00;101602.81;4982041;28;20436;-70
2023/04/21 11:14:55;;;;;;;10.20;4.80;;;;;;;16.09;100.00;101600.53;4979885;28;20488;-71